sensor_id;sensor_type;location;lat;lon;timestamp;P1;durP1;ratioP1;P2;durP2;ratioP2
32786;SDS011;19139;49.372;8.580;2023-12-29T00:01:23;3.60;;;2.57;;
32786;SDS011;19139;49.372;8.580;2023-12-29T00:03:50;2.33;;;2.13;;
32786;SDS011;19139;49.372;8.580;2023-12-29T00:06:16;2.87;;;2.50;;
32786;SDS011;19139;49.372;8.580;2023-12-29T00:08:43;2.97;;;2.30;;
32786;SDS011;19139;49.372;8.580;2023-12-29T00:11:16;4.67;;;2.63;;
32786;SDS011;19139;49.372;8.580;2023-12-29T00:13:43;3.10;;;2.77;;
32786;SDS011;19139;49.372;8.580;2023-12-29T00:16:10;3.43;;;2.10;;
32786;SDS011;19139;49.372;8.580;2023-12-29T00:18:37;3.13;;;2.73;;
32786;SDS011;19139;49.372;8.580;2023-12-29T00:21:04;2.97;;;2.43;;
32786;SDS011;19139;49.372;8.580;2023-12-29T00:23:33;2.50;;;1.90;;
32786;SDS011;19139;49.372;8.580;2023-12-29T00:25:59;3.50;;;2.50;;
32786;SDS011;19139;49.372;8.580;2023-12-29T00:28:26;2.40;;;2.20;;
32786;SDS011;19139;49.372;8.580;2023-12-29T00:30:53;3.13;;;2.30;;
32786;SDS011;19139;49.372;8.580;2023-12-29T00:33:28;2.90;;;2.50;;
32786;SDS011;19139;49.372;8.580;2023-12-29T00:35:55;2.80;;;2.13;;
32786;SDS011;19139;49.372;8.580;2023-12-29T00:38:22;3.37;;;2.73;;
32786;SDS011;19139;49.372;8.580;2023-12-29T00:40:49;2.37;;;2.00;;
32786;SDS011;19139;49.372;8.580;2023-12-29T00:43:15;2.87;;;2.40;;
32786;SDS011;19139;49.372;8.580;2023-12-29T00:45:44;2.33;;;1.97;;
32786;SDS011;19139;49.372;8.580;2023-12-29T00:48:10;2.43;;;2.23;;
32786;SDS011;19139;49.372;8.580;2023-12-29T00:50:38;2.83;;;2.23;;
32786;SDS011;19139;49.372;8.580;2023-12-29T00:53:05;4.03;;;3.00;;
32786;SDS011;19139;49.372;8.580;2023-12-29T00:55:31;2.93;;;2.63;;
32786;SDS011;19139;49.372;8.580;2023-12-29T00:57:58;2.57;;;2.37;;
32786;SDS011;19139;49.372;8.580;2023-12-29T01:00:25;2.93;;;2.33;;
32786;SDS011;19139;49.372;8.580;2023-12-29T01:02:52;3.33;;;2.30;;
32786;SDS011;19139;49.372;8.580;2023-12-29T01:05:19;2.53;;;1.97;;
32786;SDS011;19139;49.372;8.580;2023-12-29T01:07:46;3.47;;;2.23;;
32786;SDS011;19139;49.372;8.580;2023-12-29T01:10:13;3.47;;;2.30;;
32786;SDS011;19139;49.372;8.580;2023-12-29T01:12:40;3.30;;;2.23;;
32786;SDS011;19139;49.372;8.580;2023-12-29T01:15:07;3.20;;;2.60;;
32786;SDS011;19139;49.372;8.580;2023-12-29T01:17:34;2.70;;;2.13;;
32786;SDS011;19139;49.372;8.580;2023-12-29T01:20:01;2.87;;;2.30;;
32786;SDS011;19139;49.372;8.580;2023-12-29T01:22:30;2.43;;;1.80;;
32786;SDS011;19139;49.372;8.580;2023-12-29T01:24:59;3.00;;;2.07;;
32786;SDS011;19139;49.372;8.580;2023-12-29T01:27:27;2.00;;;1.80;;
32786;SDS011;19139;49.372;8.580;2023-12-29T01:29:55;2.00;;;1.80;;
32786;SDS011;19139;49.372;8.580;2023-12-29T01:32:22;2.50;;;2.27;;
32786;SDS011;19139;49.372;8.580;2023-12-29T01:34:49;2.83;;;2.17;;
32786;SDS011;19139;49.372;8.580;2023-12-29T01:37:15;3.40;;;2.70;;
32786;SDS011;19139;49.372;8.580;2023-12-29T01:39:42;2.47;;;2.27;;
32786;SDS011;19139;49.372;8.580;2023-12-29T01:42:09;3.43;;;1.83;;
32786;SDS011;19139;49.372;8.580;2023-12-29T01:44:37;2.40;;;2.20;;
32786;SDS011;19139;49.372;8.580;2023-12-29T01:47:05;2.37;;;2.03;;
32786;SDS011;19139;49.372;8.580;2023-12-29T01:49:39;2.20;;;1.90;;
32786;SDS011;19139;49.372;8.580;2023-12-29T01:52:07;3.10;;;2.00;;
32786;SDS011;19139;49.372;8.580;2023-12-29T01:54:34;3.07;;;2.30;;
32786;SDS011;19139;49.372;8.580;2023-12-29T01:57:05;3.03;;;2.23;;
32786;SDS011;19139;49.372;8.580;2023-12-29T01:59:32;3.43;;;2.17;;
32786;SDS011;19139;49.372;8.580;2023-12-29T02:01:58;2.57;;;1.87;;
32786;SDS011;19139;49.372;8.580;2023-12-29T02:04:26;2.70;;;2.20;;
32786;SDS011;19139;49.372;8.580;2023-12-29T02:06:54;2.23;;;2.03;;
32786;SDS011;19139;49.372;8.580;2023-12-29T02:09:21;3.40;;;1.87;;
32786;SDS011;19139;49.372;8.580;2023-12-29T02:11:48;2.20;;;2.00;;
32786;SDS011;19139;49.372;8.580;2023-12-29T02:14:15;2.00;;;1.80;;
32786;SDS011;19139;49.372;8.580;2023-12-29T02:19:37;2.53;;;2.13;;
32786;SDS011;19139;49.372;8.580;2023-12-29T02:22:09;2.33;;;2.00;;
32786;SDS011;19139;49.372;8.580;2023-12-29T02:24:37;3.63;;;2.50;;
32786;SDS011;19139;49.372;8.580;2023-12-29T02:32:36;2.33;;;1.83;;
32786;SDS011;19139;49.372;8.580;2023-12-29T02:35:08;3.53;;;2.10;;
32786;SDS011;19139;49.372;8.580;2023-12-29T02:37:37;2.23;;;1.83;;
32786;SDS011;19139;49.372;8.580;2023-12-29T02:40:06;3.73;;;2.43;;
32786;SDS011;19139;49.372;8.580;2023-12-29T02:42:34;2.50;;;2.03;;
32786;SDS011;19139;49.372;8.580;2023-12-29T02:45:01;2.27;;;1.97;;
32786;SDS011;19139;49.372;8.580;2023-12-29T02:47:28;2.63;;;2.37;;
32786;SDS011;19139;49.372;8.580;2023-12-29T02:49:55;1.90;;;1.70;;
32786;SDS011;19139;49.372;8.580;2023-12-29T02:52:22;2.90;;;2.00;;
32786;SDS011;19139;49.372;8.580;2023-12-29T02:54:49;1.90;;;1.70;;
32786;SDS011;19139;49.372;8.580;2023-12-29T02:57:15;2.30;;;1.90;;
32786;SDS011;19139;49.372;8.580;2023-12-29T02:59:42;2.03;;;1.70;;
32786;SDS011;19139;49.372;8.580;2023-12-29T03:02:09;2.40;;;1.80;;
32786;SDS011;19139;49.372;8.580;2023-12-29T03:04:35;2.30;;;2.10;;
32786;SDS011;19139;49.372;8.580;2023-12-29T03:07:02;1.50;;;1.40;;
32786;SDS011;19139;49.372;8.580;2023-12-29T03:09:29;3.23;;;1.93;;
32786;SDS011;19139;49.372;8.580;2023-12-29T03:11:55;2.23;;;2.00;;
32786;SDS011;19139;49.372;8.580;2023-12-29T03:14:22;2.37;;;2.03;;
32786;SDS011;19139;49.372;8.580;2023-12-29T03:16:49;2.07;;;1.87;;
32786;SDS011;19139;49.372;8.580;2023-12-29T03:19:16;2.13;;;1.80;;
32786;SDS011;19139;49.372;8.580;2023-12-29T03:21:43;2.10;;;1.90;;
32786;SDS011;19139;49.372;8.580;2023-12-29T03:24:09;2.90;;;2.30;;
32786;SDS011;19139;49.372;8.580;2023-12-29T03:26:36;2.27;;;2.07;;
32786;SDS011;19139;49.372;8.580;2023-12-29T03:29:03;2.47;;;2.10;;
32786;SDS011;19139;49.372;8.580;2023-12-29T03:31:29;2.13;;;1.93;;
32786;SDS011;19139;49.372;8.580;2023-12-29T03:33:56;2.33;;;1.80;;
32786;SDS011;19139;49.372;8.580;2023-12-29T03:36:23;2.00;;;1.80;;
32786;SDS011;19139;49.372;8.580;2023-12-29T03:38:49;3.73;;;2.10;;
32786;SDS011;19139;49.372;8.580;2023-12-29T03:41:16;2.90;;;2.23;;
32786;SDS011;19139;49.372;8.580;2023-12-29T03:43:43;2.17;;;1.87;;
32786;SDS011;19139;49.372;8.580;2023-12-29T03:48:46;2.90;;;2.03;;
32786;SDS011;19139;49.372;8.580;2023-12-29T03:51:14;1.83;;;1.40;;
32786;SDS011;19139;49.372;8.580;2023-12-29T03:53:41;1.97;;;1.73;;
32786;SDS011;19139;49.372;8.580;2023-12-29T03:56:13;2.07;;;1.77;;
32786;SDS011;19139;49.372;8.580;2023-12-29T03:58:44;2.63;;;1.93;;
32786;SDS011;19139;49.372;8.580;2023-12-29T04:01:15;2.37;;;2.07;;
32786;SDS011;19139;49.372;8.580;2023-12-29T04:03:43;2.47;;;2.03;;
32786;SDS011;19139;49.372;8.580;2023-12-29T04:06:10;3.17;;;1.90;;
32786;SDS011;19139;49.372;8.580;2023-12-29T04:08:37;3.40;;;2.00;;
32786;SDS011;19139;49.372;8.580;2023-12-29T04:11:04;1.70;;;1.60;;
32786;SDS011;19139;49.372;8.580;2023-12-29T04:13:32;2.07;;;1.87;;
32786;SDS011;19139;49.372;8.580;2023-12-29T04:15:59;1.40;;;1.30;;
32786;SDS011;19139;49.372;8.580;2023-12-29T04:18:26;2.30;;;1.87;;
32786;SDS011;19139;49.372;8.580;2023-12-29T04:20:53;1.93;;;1.80;;
32786;SDS011;19139;49.372;8.580;2023-12-29T04:23:19;2.47;;;2.03;;
32786;SDS011;19139;49.372;8.580;2023-12-29T04:25:46;1.97;;;1.77;;
32786;SDS011;19139;49.372;8.580;2023-12-29T04:28:13;2.75;;;2.15;;
32786;SDS011;19139;49.372;8.580;2023-12-29T04:30:40;1.70;;;1.60;;
32786;SDS011;19139;49.372;8.580;2023-12-29T04:33:06;2.37;;;1.80;;
32786;SDS011;19139;49.372;8.580;2023-12-29T04:35:33;1.70;;;1.60;;
32786;SDS011;19139;49.372;8.580;2023-12-29T04:38:00;2.20;;;1.73;;
32786;SDS011;19139;49.372;8.580;2023-12-29T04:40:27;1.70;;;1.40;;
32786;SDS011;19139;49.372;8.580;2023-12-29T04:42:54;2.30;;;1.80;;
32786;SDS011;19139;49.372;8.580;2023-12-29T04:45:20;1.93;;;1.70;;
32786;SDS011;19139;49.372;8.580;2023-12-29T04:47:47;2.20;;;2.00;;
32786;SDS011;19139;49.372;8.580;2023-12-29T04:50:14;2.70;;;1.80;;
32786;SDS011;19139;49.372;8.580;2023-12-29T04:52:41;2.20;;;2.00;;
32786;SDS011;19139;49.372;8.580;2023-12-29T04:55:07;2.20;;;1.90;;
32786;SDS011;19139;49.372;8.580;2023-12-29T04:57:34;1.97;;;1.87;;
32786;SDS011;19139;49.372;8.580;2023-12-29T05:00:01;1.57;;;1.47;;
32786;SDS011;19139;49.372;8.580;2023-12-29T05:02:28;2.07;;;1.90;;
32786;SDS011;19139;49.372;8.580;2023-12-29T05:04:55;2.17;;;1.40;;
32786;SDS011;19139;49.372;8.580;2023-12-29T05:07:23;1.70;;;1.50;;
32786;SDS011;19139;49.372;8.580;2023-12-29T05:09:50;1.77;;;1.67;;
32786;SDS011;19139;49.372;8.580;2023-12-29T05:12:17;2.60;;;2.40;;
32786;SDS011;19139;49.372;8.580;2023-12-29T05:14:43;1.70;;;1.60;;
32786;SDS011;19139;49.372;8.580;2023-12-29T05:17:10;1.60;;;1.50;;
32786;SDS011;19139;49.372;8.580;2023-12-29T05:19:37;2.10;;;1.90;;
32786;SDS011;19139;49.372;8.580;2023-12-29T05:22:04;2.23;;;2.03;;
32786;SDS011;19139;49.372;8.580;2023-12-29T05:24:31;1.67;;;1.50;;
32786;SDS011;19139;49.372;8.580;2023-12-29T05:26:57;2.17;;;1.97;;
32786;SDS011;19139;49.372;8.580;2023-12-29T05:29:24;2.50;;;1.67;;
32786;SDS011;19139;49.372;8.580;2023-12-29T05:31:51;1.60;;;1.50;;
32786;SDS011;19139;49.372;8.580;2023-12-29T05:34:17;2.07;;;1.70;;
32786;SDS011;19139;49.372;8.580;2023-12-29T05:36:44;2.23;;;1.73;;
32786;SDS011;19139;49.372;8.580;2023-12-29T05:39:15;1.93;;;1.70;;
32786;SDS011;19139;49.372;8.580;2023-12-29T05:41:41;2.37;;;1.60;;
32786;SDS011;19139;49.372;8.580;2023-12-29T05:44:08;1.60;;;1.50;;
32786;SDS011;19139;49.372;8.580;2023-12-29T05:46:35;2.13;;;1.80;;
32786;SDS011;19139;49.372;8.580;2023-12-29T05:49:02;1.80;;;1.53;;
32786;SDS011;19139;49.372;8.580;2023-12-29T05:51:28;1.80;;;1.70;;
32786;SDS011;19139;49.372;8.580;2023-12-29T05:53:55;2.20;;;1.83;;
32786;SDS011;19139;49.372;8.580;2023-12-29T05:56:22;1.80;;;1.60;;
32786;SDS011;19139;49.372;8.580;2023-12-29T05:58:51;1.77;;;1.67;;
32786;SDS011;19139;49.372;8.580;2023-12-29T06:01:18;1.57;;;1.47;;
32786;SDS011;19139;49.372;8.580;2023-12-29T06:03:45;1.87;;;1.67;;
32786;SDS011;19139;49.372;8.580;2023-12-29T06:06:12;2.03;;;1.83;;
32786;SDS011;19139;49.372;8.580;2023-12-29T06:08:39;1.97;;;1.83;;
32786;SDS011;19139;49.372;8.580;2023-12-29T06:11:05;2.30;;;1.70;;
32786;SDS011;19139;49.372;8.580;2023-12-29T06:13:32;1.50;;;1.40;;
32786;SDS011;19139;49.372;8.580;2023-12-29T06:15:59;2.33;;;1.80;;
32786;SDS011;19139;49.372;8.580;2023-12-29T06:18:26;1.77;;;1.63;;
32786;SDS011;19139;49.372;8.580;2023-12-29T06:20:53;1.60;;;1.50;;
32786;SDS011;19139;49.372;8.580;2023-12-29T06:23:19;2.03;;;1.70;;
32786;SDS011;19139;49.372;8.580;2023-12-29T06:25:46;1.90;;;1.60;;
32786;SDS011;19139;49.372;8.580;2023-12-29T06:28:13;1.93;;;1.73;;
32786;SDS011;19139;49.372;8.580;2023-12-29T06:30:40;1.83;;;1.57;;
32786;SDS011;19139;49.372;8.580;2023-12-29T06:33:07;1.53;;;1.40;;
32786;SDS011;19139;49.372;8.580;2023-12-29T06:35:34;2.30;;;1.70;;
32786;SDS011;19139;49.372;8.580;2023-12-29T06:38:00;1.50;;;1.40;;
32786;SDS011;19139;49.372;8.580;2023-12-29T06:40:28;1.93;;;1.80;;
32786;SDS011;19139;49.372;8.580;2023-12-29T06:42:54;1.83;;;1.53;;
32786;SDS011;19139;49.372;8.580;2023-12-29T06:45:21;1.70;;;1.30;;
32786;SDS011;19139;49.372;8.580;2023-12-29T06:47:48;1.60;;;1.50;;
32786;SDS011;19139;49.372;8.580;2023-12-29T06:50:15;1.60;;;1.50;;
32786;SDS011;19139;49.372;8.580;2023-12-29T06:52:41;1.80;;;1.40;;
32786;SDS011;19139;49.372;8.580;2023-12-29T06:55:08;2.37;;;1.50;;
32786;SDS011;19139;49.372;8.580;2023-12-29T06:57:35;1.57;;;1.30;;
32786;SDS011;19139;49.372;8.580;2023-12-29T07:00:03;1.60;;;1.43;;
32786;SDS011;19139;49.372;8.580;2023-12-29T07:02:30;2.00;;;1.77;;
32786;SDS011;19139;49.372;8.580;2023-12-29T07:04:57;1.83;;;1.57;;
32786;SDS011;19139;49.372;8.580;2023-12-29T07:07:24;1.43;;;1.10;;
32786;SDS011;19139;49.372;8.580;2023-12-29T07:09:51;1.87;;;1.40;;
32786;SDS011;19139;49.372;8.580;2023-12-29T07:12:18;2.03;;;1.50;;
32786;SDS011;19139;49.372;8.580;2023-12-29T07:14:45;1.70;;;1.60;;
32786;SDS011;19139;49.372;8.580;2023-12-29T07:17:12;1.50;;;1.40;;
32786;SDS011;19139;49.372;8.580;2023-12-29T07:19:38;1.90;;;1.70;;
32786;SDS011;19139;49.372;8.580;2023-12-29T07:22:05;1.87;;;1.50;;
32786;SDS011;19139;49.372;8.580;2023-12-29T07:24:34;2.37;;;1.37;;
32786;SDS011;19139;49.372;8.580;2023-12-29T07:27:02;1.60;;;1.50;;
32786;SDS011;19139;49.372;8.580;2023-12-29T07:29:30;1.20;;;1.10;;
32786;SDS011;19139;49.372;8.580;2023-12-29T07:31:57;1.40;;;1.30;;
32786;SDS011;19139;49.372;8.580;2023-12-29T07:34:25;1.70;;;1.60;;
32786;SDS011;19139;49.372;8.580;2023-12-29T07:36:52;1.67;;;1.57;;
32786;SDS011;19139;49.372;8.580;2023-12-29T07:39:19;1.87;;;1.73;;
32786;SDS011;19139;49.372;8.580;2023-12-29T07:41:46;1.80;;;1.40;;
32786;SDS011;19139;49.372;8.580;2023-12-29T07:44:14;1.97;;;1.60;;
32786;SDS011;19139;49.372;8.580;2023-12-29T07:46:41;1.50;;;1.30;;
32786;SDS011;19139;49.372;8.580;2023-12-29T07:49:08;1.40;;;1.30;;
32786;SDS011;19139;49.372;8.580;2023-12-29T07:51:39;1.67;;;1.57;;
32786;SDS011;19139;49.372;8.580;2023-12-29T07:54:07;1.73;;;1.63;;
32786;SDS011;19139;49.372;8.580;2023-12-29T07:56:34;1.93;;;1.70;;
32786;SDS011;19139;49.372;8.580;2023-12-29T07:59:03;1.90;;;1.70;;
32786;SDS011;19139;49.372;8.580;2023-12-29T08:01:30;1.80;;;1.60;;
32786;SDS011;19139;49.372;8.580;2023-12-29T08:03:57;2.00;;;1.47;;
32786;SDS011;19139;49.372;8.580;2023-12-29T08:06:23;2.07;;;1.67;;
32786;SDS011;19139;49.372;8.580;2023-12-29T08:08:50;1.63;;;1.53;;
32786;SDS011;19139;49.372;8.580;2023-12-29T08:11:17;1.60;;;1.50;;
32786;SDS011;19139;49.372;8.580;2023-12-29T08:13:44;3.07;;;1.43;;
32786;SDS011;19139;49.372;8.580;2023-12-29T08:16:13;1.70;;;1.60;;
32786;SDS011;19139;49.372;8.580;2023-12-29T08:18:40;1.97;;;1.53;;
32786;SDS011;19139;49.372;8.580;2023-12-29T08:21:07;2.07;;;1.50;;
32786;SDS011;19139;49.372;8.580;2023-12-29T08:23:34;1.63;;;1.53;;
32786;SDS011;19139;49.372;8.580;2023-12-29T08:26:02;1.53;;;1.43;;
32786;SDS011;19139;49.372;8.580;2023-12-29T08:28:28;1.83;;;1.67;;
32786;SDS011;19139;49.372;8.580;2023-12-29T08:30:55;1.70;;;1.60;;
32786;SDS011;19139;49.372;8.580;2023-12-29T08:33:22;1.90;;;1.60;;
32786;SDS011;19139;49.372;8.580;2023-12-29T08:35:49;1.50;;;1.40;;
32786;SDS011;19139;49.372;8.580;2023-12-29T08:38:16;1.53;;;1.30;;
32786;SDS011;19139;49.372;8.580;2023-12-29T08:40:42;1.30;;;1.20;;
32786;SDS011;19139;49.372;8.580;2023-12-29T08:43:09;1.60;;;1.50;;
32786;SDS011;19139;49.372;8.580;2023-12-29T08:45:36;1.77;;;1.63;;
32786;SDS011;19139;49.372;8.580;2023-12-29T08:48:04;1.90;;;1.67;;
32786;SDS011;19139;49.372;8.580;2023-12-29T08:50:32;1.43;;;1.33;;
32786;SDS011;19139;49.372;8.580;2023-12-29T08:52:58;1.60;;;1.50;;
32786;SDS011;19139;49.372;8.580;2023-12-29T08:55:25;1.37;;;1.27;;
32786;SDS011;19139;49.372;8.580;2023-12-29T08:57:52;3.43;;;1.63;;
32786;SDS011;19139;49.372;8.580;2023-12-29T09:00:18;1.93;;;1.33;;
32786;SDS011;19139;49.372;8.580;2023-12-29T09:02:45;1.87;;;1.60;;
32786;SDS011;19139;49.372;8.580;2023-12-29T09:05:13;1.87;;;1.43;;
32786;SDS011;19139;49.372;8.580;2023-12-29T09:07:40;1.67;;;1.53;;
32786;SDS011;19139;49.372;8.580;2023-12-29T09:10:07;1.73;;;1.53;;
32786;SDS011;19139;49.372;8.580;2023-12-29T09:12:37;1.57;;;1.47;;
32786;SDS011;19139;49.372;8.580;2023-12-29T09:15:05;2.43;;;1.40;;
32786;SDS011;19139;49.372;8.580;2023-12-29T09:17:32;1.37;;;1.27;;
32786;SDS011;19139;49.372;8.580;2023-12-29T09:19:59;1.87;;;1.20;;
32786;SDS011;19139;49.372;8.580;2023-12-29T09:22:35;1.73;;;1.40;;
32786;SDS011;19139;49.372;8.580;2023-12-29T09:25:02;2.97;;;2.03;;
32786;SDS011;19139;49.372;8.580;2023-12-29T09:27:30;3.17;;;2.87;;
32786;SDS011;19139;49.372;8.580;2023-12-29T09:29:56;4.57;;;3.40;;
32786;SDS011;19139;49.372;8.580;2023-12-29T09:32:23;4.67;;;3.37;;
32786;SDS011;19139;49.372;8.580;2023-12-29T09:34:50;4.33;;;3.00;;
32786;SDS011;19139;49.372;8.580;2023-12-29T09:37:17;3.67;;;3.37;;
32786;SDS011;19139;49.372;8.580;2023-12-29T09:39:44;3.80;;;3.20;;
32786;SDS011;19139;49.372;8.580;2023-12-29T09:42:13;4.70;;;3.00;;
32786;SDS011;19139;49.372;8.580;2023-12-29T09:44:47;5.77;;;3.10;;
32786;SDS011;19139;49.372;8.580;2023-12-29T09:47:19;2.77;;;2.57;;
32786;SDS011;19139;49.372;8.580;2023-12-29T09:49:49;4.03;;;2.90;;
32786;SDS011;19139;49.372;8.580;2023-12-29T09:52:21;3.33;;;2.90;;
32786;SDS011;19139;49.372;8.580;2023-12-29T09:54:52;2.93;;;2.70;;
32786;SDS011;19139;49.372;8.580;2023-12-29T09:57:19;2.73;;;2.50;;
32786;SDS011;19139;49.372;8.580;2023-12-29T09:59:48;2.97;;;1.97;;
32786;SDS011;19139;49.372;8.580;2023-12-29T10:02:18;3.93;;;3.17;;
32786;SDS011;19139;49.372;8.580;2023-12-29T10:04:48;3.17;;;2.13;;
32786;SDS011;19139;49.372;8.580;2023-12-29T10:07:18;4.20;;;2.40;;
32786;SDS011;19139;49.372;8.580;2023-12-29T10:09:51;2.60;;;2.10;;
32786;SDS011;19139;49.372;8.580;2023-12-29T10:12:20;3.37;;;2.33;;
32786;SDS011;19139;49.372;8.580;2023-12-29T10:14:48;2.50;;;1.80;;
32786;SDS011;19139;49.372;8.580;2023-12-29T10:20:02;2.10;;;1.90;;
32786;SDS011;19139;49.372;8.580;2023-12-29T10:25:35;2.77;;;1.97;;
32786;SDS011;19139;49.372;8.580;2023-12-29T10:28:02;2.10;;;1.90;;
32786;SDS011;19139;49.372;8.580;2023-12-29T10:30:29;4.03;;;1.70;;
32786;SDS011;19139;49.372;8.580;2023-12-29T10:33:01;2.90;;;2.60;;
32786;SDS011;19139;49.372;8.580;2023-12-29T10:35:29;2.57;;;1.53;;
32786;SDS011;19139;49.372;8.580;2023-12-29T10:38:07;3.27;;;1.83;;
32786;SDS011;19139;49.372;8.580;2023-12-29T10:40:36;2.67;;;2.00;;
32786;SDS011;19139;49.372;8.580;2023-12-29T10:43:03;3.13;;;1.93;;
32786;SDS011;19139;49.372;8.580;2023-12-29T10:45:36;3.00;;;1.90;;
32786;SDS011;19139;49.372;8.580;2023-12-29T10:48:03;2.03;;;1.60;;
32786;SDS011;19139;49.372;8.580;2023-12-29T10:50:30;3.40;;;1.90;;
32786;SDS011;19139;49.372;8.580;2023-12-29T10:53:15;2.20;;;2.00;;
32786;SDS011;19139;49.372;8.580;2023-12-29T10:55:45;3.03;;;2.07;;
32786;SDS011;19139;49.372;8.580;2023-12-29T10:58:11;2.30;;;1.90;;
32786;SDS011;19139;49.372;8.580;2023-12-29T11:00:41;2.13;;;1.67;;
32786;SDS011;19139;49.372;8.580;2023-12-29T11:03:08;2.23;;;1.60;;
32786;SDS011;19139;49.372;8.580;2023-12-29T11:05:43;1.70;;;1.53;;
32786;SDS011;19139;49.372;8.580;2023-12-29T11:08:19;2.10;;;1.60;;
32786;SDS011;19139;49.372;8.580;2023-12-29T11:10:50;3.23;;;1.97;;
32786;SDS011;19139;49.372;8.580;2023-12-29T11:13:17;2.10;;;1.73;;
32786;SDS011;19139;49.372;8.580;2023-12-29T11:15:46;1.60;;;1.50;;
32786;SDS011;19139;49.372;8.580;2023-12-29T11:18:14;2.30;;;1.50;;
32786;SDS011;19139;49.372;8.580;2023-12-29T11:20:43;2.73;;;2.13;;
32786;SDS011;19139;49.372;8.580;2023-12-29T11:23:10;2.60;;;1.80;;
32786;SDS011;19139;49.372;8.580;2023-12-29T11:25:43;2.83;;;1.83;;
32786;SDS011;19139;49.372;8.580;2023-12-29T11:28:11;1.93;;;1.67;;
32786;SDS011;19139;49.372;8.580;2023-12-29T11:30:38;2.30;;;1.40;;
32786;SDS011;19139;49.372;8.580;2023-12-29T11:33:18;2.70;;;2.00;;
32786;SDS011;19139;49.372;8.580;2023-12-29T11:35:50;1.80;;;1.70;;
32786;SDS011;19139;49.372;8.580;2023-12-29T11:44:40;2.10;;;1.40;;
32786;SDS011;19139;49.372;8.580;2023-12-29T11:47:08;3.50;;;1.60;;
32786;SDS011;19139;49.372;8.580;2023-12-29T11:50:01;11.40;;;2.57;;
32786;SDS011;19139;49.372;8.580;2023-12-29T11:52:32;14.20;;;3.03;;
32786;SDS011;19139;49.372;8.580;2023-12-29T11:57:40;2.73;;;1.20;;
32786;SDS011;19139;49.372;8.580;2023-12-29T12:00:08;5.47;;;1.53;;
32786;SDS011;19139;49.372;8.580;2023-12-29T12:02:35;4.33;;;1.30;;
32786;SDS011;19139;49.372;8.580;2023-12-29T12:05:03;9.03;;;1.53;;
32786;SDS011;19139;49.372;8.580;2023-12-29T12:12:48;7.53;;;1.70;;
32786;SDS011;19139;49.372;8.580;2023-12-29T12:17:53;2.20;;;1.10;;
32786;SDS011;19139;49.372;8.580;2023-12-29T12:20:31;5.23;;;1.97;;
32786;SDS011;19139;49.372;8.580;2023-12-29T12:22:58;3.70;;;2.07;;
32786;SDS011;19139;49.372;8.580;2023-12-29T12:25:26;5.80;;;1.23;;
32786;SDS011;19139;49.372;8.580;2023-12-29T12:27:57;3.70;;;1.03;;
32786;SDS011;19139;49.372;8.580;2023-12-29T12:30:24;3.87;;;1.13;;
32786;SDS011;19139;49.372;8.580;2023-12-29T12:32:57;4.93;;;1.27;;
32786;SDS011;19139;49.372;8.580;2023-12-29T12:35:25;4.50;;;1.10;;
32786;SDS011;19139;49.372;8.580;2023-12-29T12:38:12;1.70;;;1.10;;
32786;SDS011;19139;49.372;8.580;2023-12-29T12:40:40;1.60;;;1.03;;
32786;SDS011;19139;49.372;8.580;2023-12-29T12:43:07;2.80;;;0.93;;
32786;SDS011;19139;49.372;8.580;2023-12-29T12:45:35;1.50;;;1.03;;
32786;SDS011;19139;49.372;8.580;2023-12-29T12:48:19;1.93;;;1.10;;
32786;SDS011;19139;49.372;8.580;2023-12-29T12:50:54;3.10;;;1.53;;
32786;SDS011;19139;49.372;8.580;2023-12-29T12:53:23;1.53;;;0.97;;
32786;SDS011;19139;49.372;8.580;2023-12-29T12:55:50;2.13;;;1.30;;
32786;SDS011;19139;49.372;8.580;2023-12-29T12:58:18;1.90;;;1.13;;
32786;SDS011;19139;49.372;8.580;2023-12-29T13:00:49;1.93;;;0.90;;
32786;SDS011;19139;49.372;8.580;2023-12-29T13:03:20;2.33;;;1.07;;
32786;SDS011;19139;49.372;8.580;2023-12-29T13:05:47;1.23;;;0.93;;
32786;SDS011;19139;49.372;8.580;2023-12-29T13:08:15;1.90;;;1.20;;
32786;SDS011;19139;49.372;8.580;2023-12-29T13:10:59;2.20;;;1.10;;
32786;SDS011;19139;49.372;8.580;2023-12-29T13:13:36;2.50;;;0.90;;
32786;SDS011;19139;49.372;8.580;2023-12-29T13:16:05;1.30;;;0.90;;
32786;SDS011;19139;49.372;8.580;2023-12-29T13:18:32;2.73;;;1.17;;
32786;SDS011;19139;49.372;8.580;2023-12-29T13:21:01;1.10;;;0.80;;
32786;SDS011;19139;49.372;8.580;2023-12-29T13:23:28;2.80;;;1.03;;
32786;SDS011;19139;49.372;8.580;2023-12-29T13:25:59;2.87;;;1.30;;
32786;SDS011;19139;49.372;8.580;2023-12-29T13:28:28;1.57;;;0.70;;
32786;SDS011;19139;49.372;8.580;2023-12-29T13:30:56;4.10;;;1.30;;
32786;SDS011;19139;49.372;8.580;2023-12-29T13:37:22;2.70;;;1.03;;
32786;SDS011;19139;49.372;8.580;2023-12-29T13:42:37;2.00;;;1.10;;
32786;SDS011;19139;49.372;8.580;2023-12-29T13:45:08;1.93;;;0.97;;
32786;SDS011;19139;49.372;8.580;2023-12-29T13:47:36;0.93;;;0.70;;
32786;SDS011;19139;49.372;8.580;2023-12-29T13:50:04;1.63;;;1.10;;
32786;SDS011;19139;49.372;8.580;2023-12-29T13:52:35;2.27;;;0.87;;
32786;SDS011;19139;49.372;8.580;2023-12-29T13:55:03;1.67;;;0.97;;
32786;SDS011;19139;49.372;8.580;2023-12-29T13:57:31;1.57;;;0.93;;
32786;SDS011;19139;49.372;8.580;2023-12-29T14:00:17;1.17;;;0.93;;
32786;SDS011;19139;49.372;8.580;2023-12-29T14:02:57;1.10;;;0.60;;
32786;SDS011;19139;49.372;8.580;2023-12-29T14:05:31;1.17;;;0.90;;
32786;SDS011;19139;49.372;8.580;2023-12-29T14:10:35;1.27;;;0.90;;
32786;SDS011;19139;49.372;8.580;2023-12-29T14:13:12;2.00;;;0.87;;
32786;SDS011;19139;49.372;8.580;2023-12-29T14:15:41;1.03;;;0.93;;
32786;SDS011;19139;49.372;8.580;2023-12-29T14:18:14;1.17;;;0.80;;
32786;SDS011;19139;49.372;8.580;2023-12-29T14:20:47;1.70;;;0.90;;
32786;SDS011;19139;49.372;8.580;2023-12-29T14:23:16;0.70;;;0.60;;
32786;SDS011;19139;49.372;8.580;2023-12-29T14:25:44;1.00;;;0.67;;
32786;SDS011;19139;49.372;8.580;2023-12-29T14:28:16;1.20;;;0.77;;
32786;SDS011;19139;49.372;8.580;2023-12-29T14:30:44;1.57;;;0.90;;
32786;SDS011;19139;49.372;8.580;2023-12-29T14:33:12;3.80;;;0.90;;
32786;SDS011;19139;49.372;8.580;2023-12-29T14:35:38;0.70;;;0.57;;
32786;SDS011;19139;49.372;8.580;2023-12-29T14:38:05;1.93;;;1.17;;
32786;SDS011;19139;49.372;8.580;2023-12-29T14:40:32;0.80;;;0.80;;
32786;SDS011;19139;49.372;8.580;2023-12-29T14:43:01;1.57;;;0.93;;
32786;SDS011;19139;49.372;8.580;2023-12-29T14:45:29;1.57;;;0.87;;
32786;SDS011;19139;49.372;8.580;2023-12-29T14:47:56;0.97;;;0.70;;
32786;SDS011;19139;49.372;8.580;2023-12-29T14:50:25;1.07;;;0.90;;
32786;SDS011;19139;49.372;8.580;2023-12-29T14:52:52;0.87;;;0.77;;
32786;SDS011;19139;49.372;8.580;2023-12-29T14:55:18;0.67;;;0.60;;
32786;SDS011;19139;49.372;8.580;2023-12-29T14:57:46;1.00;;;0.90;;
32786;SDS011;19139;49.372;8.580;2023-12-29T15:00:13;1.33;;;0.80;;
32786;SDS011;19139;49.372;8.580;2023-12-29T15:02:42;1.20;;;0.77;;
32786;SDS011;19139;49.372;8.580;2023-12-29T15:05:09;1.20;;;0.80;;
32786;SDS011;19139;49.372;8.580;2023-12-29T15:07:35;1.10;;;0.70;;
32786;SDS011;19139;49.372;8.580;2023-12-29T15:10:02;0.90;;;0.70;;
32786;SDS011;19139;49.372;8.580;2023-12-29T15:12:29;1.73;;;0.90;;
32786;SDS011;19139;49.372;8.580;2023-12-29T15:14:57;1.93;;;0.87;;
32786;SDS011;19139;49.372;8.580;2023-12-29T15:17:23;1.00;;;0.70;;
32786;SDS011;19139;49.372;8.580;2023-12-29T15:19:50;0.77;;;0.60;;
32786;SDS011;19139;49.372;8.580;2023-12-29T15:22:17;0.90;;;0.77;;
32786;SDS011;19139;49.372;8.580;2023-12-29T15:24:45;0.83;;;0.70;;
32786;SDS011;19139;49.372;8.580;2023-12-29T15:27:12;1.33;;;0.90;;
32786;SDS011;19139;49.372;8.580;2023-12-29T15:29:39;2.30;;;0.77;;
32786;SDS011;19139;49.372;8.580;2023-12-29T15:32:05;0.93;;;0.70;;
32786;SDS011;19139;49.372;8.580;2023-12-29T15:34:32;0.70;;;0.70;;
32786;SDS011;19139;49.372;8.580;2023-12-29T15:36:59;2.73;;;1.20;;